Churchs Ferry, North Dakota
Current Conditions -  °F | °C
As of 9:35 AM on Thursday 30 Oct 2014 (Local Time) from K9D7 Reporting Station
Overcast Overcast  
Wind Chill: 21°   Ceiling: 1500
Heat Index: 32°   Visibility: 10mi
Dew Point: 28°   Wind: 17mph
Humidity: 87%   Direction: 360°N
Pressure: 30.3"   Gusts: 22mph
Location:  48.27°N, 99.19°W
Report Text: K9D7 301435Z AUTO 36015G19KT 10SM OVC015 00/M02 A3030 RMK AO2
Loading
Personal Weather Stations






























Interactive Weather Map
Tropical Storm Tracking
New forecast layout! Learn more

10-Day Weather Forecast

Advertisements
Track Severe Weather on mobile